createdAt,value
2023-03-26T00:01:39.859Z,10.20
2023-03-26T00:04:10.003Z,8.40
2023-03-26T00:06:39.245Z,4.80
2023-03-26T00:09:09.499Z,8.30
2023-03-26T00:11:36.843Z,3.10
2023-03-26T00:14:04.905Z,5.10
2023-03-26T00:16:31.952Z,8.20
2023-03-26T00:19:01.416Z,4.50
2023-03-26T00:21:30.328Z,2.50
2023-03-26T00:24:26.294Z,5.00
2023-03-26T00:27:02.287Z,4.40
2023-03-26T00:29:32.765Z,4.60
2023-03-26T00:31:59.772Z,7.30
2023-03-26T00:34:26.980Z,4.90
2023-03-26T00:36:54.337Z,6.70
2023-03-26T00:39:23.483Z,2.40
2023-03-26T00:41:53.804Z,2.80
2023-03-26T00:44:21.105Z,3.80
2023-03-26T00:46:48.928Z,5.00
2023-03-26T00:49:15.891Z,6.30
2023-03-26T00:51:42.965Z,4.40
2023-03-26T00:54:11.348Z,3.70
2023-03-26T00:56:38.675Z,5.20
2023-03-26T00:59:05.805Z,4.40
2023-03-26T01:01:33.158Z,4.80
2023-03-26T01:04:49.966Z,5.50
2023-03-26T01:07:21.322Z,10.20
2023-03-26T01:09:51.263Z,4.40
2023-03-26T01:12:21.800Z,6.70
2023-03-26T01:14:56.553Z,6.50
2023-03-26T01:17:34.562Z,5.40
2023-03-26T01:20:22.673Z,5.00
2023-03-26T01:22:55.861Z,5.40
2023-03-26T01:25:28.599Z,4.40
2023-03-26T01:30:56.915Z,4.00
2023-03-26T01:33:36.864Z,7.00
2023-03-26T01:36:32.736Z,5.80
2023-03-26T01:39:20.958Z,5.40
2023-03-26T01:41:57.997Z,3.80
2023-03-26T01:44:39.072Z,7.30
2023-03-26T01:47:09.587Z,3.50
2023-03-26T01:49:36.859Z,5.90
2023-03-26T01:52:12.595Z,6.60
2023-03-26T01:54:40.911Z,6.20
2023-03-26T01:57:33.431Z,6.10
2023-03-26T02:00:17.646Z,4.70
2023-03-26T02:03:25.731Z,2.40
2023-03-26T02:06:16.011Z,4.50
2023-03-26T02:09:00.360Z,4.60
2023-03-26T02:11:35.296Z,5.50
2023-03-26T02:14:05.651Z,6.80
2023-03-26T02:16:32.866Z,5.10
2023-03-26T02:18:59.951Z,6.50
2023-03-26T02:21:27.966Z,5.60
2023-03-26T02:24:06.059Z,8.30
2023-03-26T02:26:37.214Z,5.90
2023-03-26T02:29:07.677Z,4.10
2023-03-26T02:31:36.350Z,3.20
2023-03-26T02:34:06.700Z,4.40
2023-03-26T02:36:36.022Z,8.60
2023-03-26T02:39:04.788Z,7.40
2023-03-26T02:41:34.967Z,7.70
2023-03-26T02:44:08.039Z,5.30
2023-03-26T02:46:53.816Z,5.40
2023-03-26T02:49:59.383Z,7.10
2023-03-26T02:52:49.407Z,4.50
2023-03-26T02:55:16.506Z,4.60
2023-03-26T02:57:45.132Z,5.90
2023-03-26T03:00:21.444Z,6.20
2023-03-26T03:03:04.030Z,5.30
2023-03-26T03:05:32.538Z,6.30
2023-03-26T03:08:23.649Z,9.30
2023-03-26T03:11:26.038Z,6.00
2023-03-26T03:13:53.922Z,6.70
2023-03-26T03:16:27.237Z,5.00
2023-03-26T03:18:57.571Z,6.40
2023-03-26T03:21:28.290Z,6.00
2023-03-26T03:24:00.002Z,7.70
2023-03-26T03:26:41.803Z,7.50
2023-03-26T03:29:24.791Z,5.70
2023-03-26T03:31:52.205Z,6.00
2023-03-26T03:34:42.289Z,5.50
2023-03-26T03:37:09.407Z,3.60
2023-03-26T03:39:44.185Z,7.60
2023-03-26T03:42:12.461Z,5.10
2023-03-26T03:44:39.749Z,5.70
2023-03-26T03:47:23.116Z,5.60
2023-03-26T03:49:50.706Z,5.00
2023-03-26T03:52:18.066Z,5.00
2023-03-26T03:54:46.003Z,5.40
2023-03-26T03:57:34.217Z,7.20
2023-03-26T04:00:07.620Z,6.40
2023-03-26T04:02:42.549Z,8.30
2023-03-26T04:05:11.446Z,7.80
2023-03-26T04:07:43.536Z,7.00
2023-03-26T04:10:46.799Z,8.10
2023-03-26T04:13:17.602Z,6.50
2023-03-26T04:16:08.867Z,2.70
2023-03-26T04:18:37.088Z,4.00
2023-03-26T04:21:12.016Z,3.30
2023-03-26T04:23:47.604Z,7.10
2023-03-26T04:26:49.538Z,7.90
2023-03-26T04:29:27.349Z,7.00
2023-03-26T04:32:08.422Z,6.90
2023-03-26T04:34:35.898Z,5.60
2023-03-26T04:37:26.346Z,6.40
2023-03-26T04:40:20.047Z,2.50
2023-03-26T04:43:21.766Z,7.40
2023-03-26T04:46:11.008Z,8.80
2023-03-26T04:48:45.176Z,5.60
2023-03-26T04:51:17.955Z,8.20
2023-03-26T04:53:57.845Z,8.10
2023-03-26T04:56:43.008Z,8.10
2023-03-26T04:59:36.552Z,7.40
2023-03-26T05:02:09.149Z,8.20
2023-03-26T05:04:50.618Z,6.30
2023-03-26T05:07:23.613Z,7.00
2023-03-26T05:09:53.628Z,6.70
2023-03-26T05:12:34.824Z,4.30
2023-03-26T05:15:10.963Z,4.30
2023-03-26T05:17:58.565Z,7.80
2023-03-26T05:20:30.663Z,6.80
2023-03-26T05:22:58.046Z,7.90
2023-03-26T05:25:39.401Z,8.60
2023-03-26T05:28:13.260Z,4.40
2023-03-26T05:31:01.309Z,4.90
2023-03-26T05:33:30.866Z,3.30
2023-03-26T05:36:30.456Z,7.40
2023-03-26T05:39:26.238Z,5.10
2023-03-26T05:42:16.245Z,4.80
2023-03-26T05:44:58.252Z,5.30
2023-03-26T05:47:27.557Z,5.20
2023-03-26T05:49:54.997Z,3.80
2023-03-26T05:52:22.261Z,5.20
2023-03-26T05:55:14.123Z,5.70
2023-03-26T05:58:03.251Z,6.50
2023-03-26T06:01:19.376Z,7.30
2023-03-26T06:04:13.209Z,4.90
2023-03-26T06:06:44.344Z,5.40
2023-03-26T06:09:12.868Z,6.70
2023-03-26T06:11:41.290Z,5.10
2023-03-26T06:14:08.666Z,6.40
2023-03-26T06:16:38.984Z,5.80
2023-03-26T06:19:38.300Z,5.80
2023-03-26T06:22:13.306Z,4.10
2023-03-26T06:25:18.478Z,6.20
2023-03-26T06:27:54.386Z,4.90
2023-03-26T06:30:40.349Z,3.00
2023-03-26T06:33:24.968Z,5.40
2023-03-26T06:35:52.630Z,4.30
2023-03-26T06:38:19.927Z,5.30
2023-03-26T06:40:47.186Z,4.30
2023-03-26T06:43:36.420Z,3.30
2023-03-26T06:46:16.481Z,2.80
2023-03-26T06:49:02.432Z,2.80
2023-03-26T06:52:24.363Z,2.30
2023-03-26T06:55:06.087Z,4.70
2023-03-26T06:58:03.761Z,3.90
2023-03-26T07:00:54.052Z,4.70
2023-03-26T07:03:40.012Z,2.90
2023-03-26T07:06:39.167Z,3.70
2023-03-26T07:09:25.792Z,2.90
2023-03-26T07:12:28.129Z,2.30
2023-03-26T07:15:17.115Z,2.70
2023-03-26T07:18:06.474Z,10.20
2023-03-26T07:20:36.127Z,2.70
2023-03-26T07:23:04.463Z,3.60
2023-03-26T07:26:22.633Z,6.00
2023-03-26T07:29:35.201Z,4.10
2023-03-26T07:32:49.473Z,2.50
2023-03-26T07:35:38.191Z,3.00
2023-03-26T07:38:50.396Z,1.60
2023-03-26T07:41:40.679Z,2.40
2023-03-26T07:44:41.036Z,3.50
2023-03-26T07:47:42.058Z,3.70
2023-03-26T07:50:38.866Z,8.50
2023-03-26T07:53:28.399Z,2.80
2023-03-26T07:56:18.456Z,2.60
2023-03-26T07:59:16.266Z,2.90
2023-03-26T08:02:17.562Z,2.20
2023-03-26T08:05:09.833Z,3.50
2023-03-26T08:08:14.463Z,3.00
2023-03-26T08:11:29.484Z,2.40
2023-03-26T08:14:13.853Z,2.90
2023-03-26T08:17:01.889Z,3.20
2023-03-26T08:19:40.284Z,3.30
2023-03-26T08:22:25.743Z,1.60
2023-03-26T08:24:56.701Z,2.70
2023-03-26T08:27:41.047Z,3.60
2023-03-26T08:30:07.992Z,3.50
2023-03-26T08:32:35.403Z,3.20
2023-03-26T08:35:03.883Z,2.80
2023-03-26T08:37:31.124Z,3.20
2023-03-26T08:39:58.162Z,3.70
2023-03-26T08:43:00.905Z,5.50
2023-03-26T08:45:44.038Z,5.70
2023-03-26T08:48:29.359Z,2.20
2023-03-26T08:51:14.793Z,2.80
2023-03-26T08:54:02.870Z,4.00
2023-03-26T08:56:53.300Z,3.00
2023-03-26T08:59:48.755Z,2.30
2023-03-26T09:02:33.500Z,2.90
2023-03-26T09:05:43.375Z,3.60
2023-03-26T09:08:32.405Z,7.40
2023-03-26T09:11:45.366Z,1.10
2023-03-26T09:14:30.144Z,1.40
2023-03-26T09:17:24.221Z,2.20
2023-03-26T09:20:19.479Z,2.70
2023-03-26T09:23:11.977Z,1.00
2023-03-26T09:26:03.574Z,0.90
2023-03-26T09:29:10.664Z,7.00
2023-03-26T09:32:05.031Z,2.90
2023-03-26T09:34:57.893Z,2.20
2023-03-26T09:40:46.063Z,2.50
2023-03-26T09:43:36.174Z,2.80
2023-03-26T09:46:09.959Z,1.60
2023-03-26T09:49:22.359Z,3.30
2023-03-26T09:52:08.368Z,3.20
2023-03-26T09:54:48.106Z,5.30
2023-03-26T09:57:57.788Z,6.10
2023-03-26T10:00:46.696Z,2.00
2023-03-26T10:03:38.270Z,4.10
2023-03-26T10:06:34.601Z,2.00
2023-03-26T10:09:20.527Z,8.60
2023-03-26T10:12:23.703Z,0.90
2023-03-26T10:15:16.601Z,1.80
2023-03-26T10:18:00.280Z,2.40
2023-03-26T10:20:56.954Z,3.50
2023-03-26T10:23:47.724Z,1.80
2023-03-26T10:27:09.006Z,3.70
2023-03-26T10:29:51.489Z,1.40
2023-03-26T10:32:58.730Z,3.70
2023-03-26T10:35:51.949Z,5.10
2023-03-26T10:38:40.396Z,2.20
2023-03-26T10:41:18.004Z,2.80
2023-03-26T10:44:11.262Z,6.40
2023-03-26T10:46:52.455Z,4.40
2023-03-26T10:49:49.574Z,1.90
2023-03-26T10:52:49.891Z,2.50
2023-03-26T10:55:31.390Z,5.10
2023-03-26T10:58:24.529Z,4.20
2023-03-26T11:01:06.285Z,2.70
2023-03-26T11:03:51.591Z,1.90
2023-03-26T11:06:42.566Z,3.60
2023-03-26T11:09:37.394Z,4.10
2023-03-26T11:12:26.339Z,3.20
2023-03-26T11:15:15.160Z,2.10
2023-03-26T11:18:26.862Z,2.40
2023-03-26T11:21:19.834Z,6.80
2023-03-26T11:24:05.131Z,4.20
2023-03-26T11:26:56.860Z,3.20
2023-03-26T11:29:56.952Z,5.30
2023-03-26T11:32:34.173Z,4.00
2023-03-26T11:35:18.343Z,3.50
2023-03-26T11:38:32.461Z,3.00
2023-03-26T11:41:03.468Z,2.40
2023-03-26T11:44:00.362Z,4.40
2023-03-26T11:46:33.892Z,5.40
2023-03-26T11:49:15.531Z,6.30
2023-03-26T11:51:46.876Z,2.40
2023-03-26T11:54:15.914Z,4.10
2023-03-26T11:57:05.914Z,4.90
2023-03-26T11:59:57.241Z,5.00
2023-03-26T12:02:37.200Z,5.90
2023-03-26T12:05:26.881Z,3.10
2023-03-26T12:07:59.796Z,3.60
2023-03-26T12:10:40.067Z,4.10
2023-03-26T12:13:43.046Z,8.40
2023-03-26T12:16:38.349Z,4.90
2023-03-26T12:19:21.941Z,5.90
2023-03-26T12:21:51.626Z,3.40
2023-03-26T12:25:09.129Z,3.40
2023-03-26T12:28:02.848Z,3.80
2023-03-26T12:30:44.743Z,4.90
2023-03-26T12:33:39.016Z,3.90
2023-03-26T12:36:19.446Z,2.60
2023-03-26T12:38:46.487Z,6.10
2023-03-26T12:43:19.840Z,2.00
2023-03-26T12:44:54.131Z,3.80
2023-03-26T12:48:00.460Z,3.20
2023-03-26T12:50:15.884Z,6.80
2023-03-26T12:53:05.647Z,2.90
2023-03-26T12:55:36.241Z,6.10
2023-03-26T13:01:22.767Z,3.20
2023-03-26T13:04:11.149Z,3.70
2023-03-26T13:07:00.681Z,1.50
2023-03-26T13:09:44.405Z,4.40
2023-03-26T13:12:17.568Z,4.70
2023-03-26T13:14:55.817Z,2.80
2023-03-26T13:17:31.914Z,1.80
2023-03-26T13:20:01.962Z,3.10
2023-03-26T13:23:18.206Z,2.20
2023-03-26T13:26:24.296Z,4.50
2023-03-26T13:29:20.075Z,4.60
2023-03-26T13:32:23.172Z,2.80
2023-03-26T13:35:18.501Z,3.90
2023-03-26T13:37:54.558Z,4.10
2023-03-26T13:40:35.841Z,2.30
2023-03-26T13:43:20.640Z,3.70
2023-03-26T13:46:23.619Z,2.20
2023-03-26T13:48:57.796Z,2.50
2023-03-26T13:51:27.027Z,4.40
2023-03-26T13:54:04.791Z,3.30
2023-03-26T13:56:47.280Z,3.40
2023-03-26T14:02:05.709Z,5.30
2023-03-26T14:04:47.078Z,4.20
2023-03-26T14:07:20.441Z,2.80
2023-03-26T14:09:57.334Z,3.10
2023-03-26T14:12:51.774Z,3.40
2023-03-26T14:15:22.634Z,2.60
2023-03-26T14:17:52.914Z,2.60
2023-03-26T14:20:58.883Z,2.10
2023-03-26T14:23:56.764Z,3.00
2023-03-26T14:26:48.611Z,2.20
2023-03-26T14:29:29.692Z,2.50
2023-03-26T14:32:24.529Z,5.30
2023-03-26T14:35:04.343Z,5.90
2023-03-26T14:38:14.392Z,1.70
2023-03-26T14:41:10.006Z,2.20
2023-03-26T14:44:10.583Z,4.60
2023-03-26T14:46:49.772Z,2.40
2023-03-26T14:49:22.863Z,4.40
2023-03-26T14:52:20.102Z,0.90
2023-03-26T14:54:52.276Z,4.10
2023-03-26T14:57:46.902Z,4.10
2023-03-26T15:01:03.899Z,2.90
2023-03-26T15:04:05.692Z,3.70
2023-03-26T15:06:50.807Z,1.90
2023-03-26T15:09:45.755Z,2.10
2023-03-26T15:12:15.779Z,2.40
2023-03-26T15:15:16.226Z,2.80
2023-03-26T15:18:05.991Z,2.80
2023-03-26T15:20:55.788Z,3.20
2023-03-26T15:24:19.602Z,3.90
2023-03-26T15:27:11.667Z,3.10
2023-03-26T15:30:20.373Z,2.90
2023-03-26T15:33:19.611Z,6.50
2023-03-26T15:36:14.359Z,3.30
2023-03-26T15:38:42.120Z,4.90
2023-03-26T15:41:45.940Z,2.80
2023-03-26T15:48:38.161Z,3.30
2023-03-26T15:51:21.718Z,3.80
2023-03-26T15:54:07.906Z,3.70
2023-03-26T15:56:48.605Z,3.00
2023-03-26T15:59:41.386Z,3.80
2023-03-26T16:02:38.521Z,5.40
2023-03-26T16:05:36.731Z,7.20
2023-03-26T16:08:38.716Z,2.10
2023-03-26T16:11:12.951Z,6.20
2023-03-26T16:14:02.512Z,2.80
2023-03-26T16:17:38.080Z,2.00
2023-03-26T16:22:03.529Z,4.30
2023-03-26T16:28:08.994Z,6.50
2023-03-26T16:30:45.789Z,5.60
2023-03-26T16:52:36.930Z,8.40
2023-03-26T17:19:30.052Z,55.30
2023-03-26T18:02:00.724Z,24.00
2023-03-26T18:04:39.176Z,26.20
2023-03-26T18:22:11.706Z,51.80
2023-03-26T18:26:01.920Z,33.60
2023-03-26T18:28:34.505Z,27.00
2023-03-26T18:32:30.686Z,27.30
2023-03-26T19:13:19.866Z,35.10
2023-03-26T19:16:43.123Z,29.70
2023-03-26T20:22:41.024Z,27.30
2023-03-26T20:26:27.439Z,27.30
2023-03-26T20:38:39.120Z,19.40
2023-03-26T21:04:47.318Z,18.40
2023-03-26T21:07:23.099Z,17.10
2023-03-26T21:13:05.245Z,21.90
2023-03-26T21:15:33.284Z,17.20
2023-03-26T21:18:00.626Z,16.40
2023-03-26T21:20:28.286Z,16.10
2023-03-26T21:23:15.801Z,18.40
2023-03-26T21:26:01.166Z,24.10
2023-03-26T21:28:41.992Z,26.60
2023-03-26T21:31:17.948Z,25.60
2023-03-26T21:33:46.077Z,18.50
2023-03-26T21:36:14.671Z,20.10
2023-03-26T21:38:43.115Z,23.10
2023-03-26T21:42:04.889Z,17.40
2023-03-26T21:44:36.501Z,22.90
2023-03-26T21:47:03.959Z,25.70
2023-03-26T21:49:34.634Z,22.50
2023-03-26T21:52:02.312Z,25.80
2023-03-26T21:54:31.650Z,19.70
2023-03-26T21:58:00.853Z,25.20
2023-03-26T22:01:02.320Z,21.40
2023-03-26T22:03:37.328Z,20.20
2023-03-26T22:06:17.126Z,17.70
2023-03-26T22:08:44.405Z,20.30
2023-03-26T22:11:12.510Z,18.60
2023-03-26T22:13:39.674Z,22.10
2023-03-26T22:16:08.909Z,21.20
2023-03-26T22:18:36.340Z,21.00
2023-03-26T22:21:04.064Z,10.90
2023-03-26T22:23:35.536Z,19.00
2023-03-26T22:26:04.600Z,14.80
2023-03-26T22:28:31.720Z,17.60
2023-03-26T22:30:59.156Z,12.40
2023-03-26T22:33:26.492Z,13.40
2023-03-26T22:35:55.595Z,14.50
2023-03-26T22:38:23.380Z,18.40
2023-03-26T22:40:56.595Z,20.50
2023-03-26T22:43:23.980Z,10.80
2023-03-26T22:45:53.071Z,18.20
2023-03-26T22:48:22.898Z,16.30
2023-03-26T22:51:07.568Z,19.60
2023-03-26T22:53:35.563Z,16.40
2023-03-26T22:56:03.606Z,14.10
2023-03-26T22:58:32.450Z,21.40
2023-03-26T23:01:17.335Z,28.50
2023-03-26T23:03:46.113Z,22.70
2023-03-26T23:06:13.663Z,19.60
2023-03-26T23:08:41.513Z,23.20
2023-03-26T23:11:16.416Z,19.80
2023-03-26T23:13:52.662Z,23.40
2023-03-26T23:16:20.943Z,23.60
2023-03-26T23:18:48.035Z,22.70
2023-03-26T23:21:17.702Z,26.90
2023-03-26T23:23:46.419Z,22.90
2023-03-26T23:26:14.404Z,24.60
2023-03-26T23:28:47.046Z,17.40
2023-03-26T23:33:46.959Z,21.60
2023-03-26T23:36:17.348Z,20.80
2023-03-26T23:38:48.664Z,11.00
2023-03-26T23:41:20.776Z,25.40
2023-03-26T23:43:58.766Z,20.90
2023-03-26T23:46:34.107Z,8.60
2023-03-26T23:49:04.432Z,11.30
2023-03-26T23:51:32.487Z,12.90
2023-03-26T23:54:00.883Z,18.10
2023-03-26T23:56:29.212Z,18.20
2023-03-26T23:58:56.187Z,21.40
